Tiempo atmosférico en la estación meteorológica de Valle de Hecho, Hecho, Huesca (855 m.)



Fecha
DESCASC
Temp. máxima en grados centígrados (hora)
DESCASC
Temp. mínima en grados centígrados (hora)
DESCASC
Temp. media en grados centígrados
DESCASC
Racha de viento máxima en m/sg (hora)
DESCASC
Velocidad máxima media en intervalos de 10 minutos(hora)
DESCASC
Precipitaciones diarias en mm
DESCASC
Precipitaciones de 00:00 a 06:00 en mm
DESCASC
Precipitaciones de 06:00 a 12:00 en mm
DESCASC
Precipitaciones de 12:00 a 18:00 en mm
DESCASC
Precipitaciones de 18:00 a 24:00 en mm
DESCASC
14-12-2019 11.1 (13:30) 4.1 (23:59) 7.6 8.33 (02:00) 5 (10:10) 0 0 0 0 0
13-12-2019 10.4 (18:30) 0.2 (00:30) 5.3 16.67 (09:10) 5.56 (09:20) 49.8 23.8 13.8 10.2 2
12-12-2019 3.4 (13:20) 0.1 (19:10) 1.8 7.78 (02:30) 4.72 (02:30) 42.8 1.8 3.4 16 21.6
11-12-2019 7.4 (15:20) 0.6 (00:00) 4 10.83 (15:10) 6.11 (15:10) 2.8 0 0.4 0 2.4
10-12-2019 14.7 (11:30) 0.7 (00:00) 7.7 15.56 (05:10) 7.5 (04:30) 0 0 0 0 0
09-12-2019 7.3 (13:50) -1.6 (-00:0) 2.9 18.61 (23:40) 6.67 (23:50) 3.6 0 2.8 0.8 0
08-12-2019 10.8 (13:10) -2.4 (-00:0) 4.2 9.72 (21:50) 5.83 (20:00) 2.6 0 0 2.6 0
07-12-2019 13.1 (15:10) -2.6 (-00:0) 5.3 3.89 (14:40) 2.22 (14:40) 0 0 0 0 0
06-12-2019 11.8 (13:50) 0.4 (00:00) 6.1 4.17 (18:20) 1.94 (18:20) 0 0 0 0 0
05-12-2019 11.7 (15:20) -0.9 (-00:0) 5.4 5 (09:50) 2.5 (09:50) 0 0 0 0 0
04-12-2019 10.8 (17:30) -3 (-00:0) 3.9 10.56 (17:00) 5 (17:30) 0 0 0 0 0
03-12-2019 9.7 (15:30) -4.6 (-00:0) 2.5 3.89 (16:30) 2.22 (16:30) 0 0 0 0 0
02-12-2019 8.7 (13:10) -1.3 (-00:0) 3.7 13.33 (17:50) 6.67 (11:30) 0 0 0 0 0
01-12-2019 9.6 (15:00) -0.4 (00:00) 4.6 6.67 (17:00) 3.06 (15:10) 0 0 0 0 0
30-11-2019 10.7 (17:10) -1.4 (-00:0) 4.6 9.17 (19:30) 4.17 (19:30) 20.2 0 0.6 1.8 17.8
29-11-2019 13.1 (14:10) 0 (00:00) 6.6 9.17 (11:00) 5.28 (11:00) 1.4 1.4 0 0 0
28-11-2019 9.4 (12:50) 5.6 (00:00) 7.5 5.56 (16:50) 2.78 (17:30) 9 1.4 0.2 1.6 5.8
27-11-2019 11.8 (00:00) 4.9 (00:00) 8.4 9.72 (00:10) 3.61 (00:10) 23.2 12 0 0.6 10.6
26-11-2019 12.5 (16:40) 0.9 (00:00) 6.7 8.61 (22:10) 4.17 (19:00) 0.4 0 0 0.2 0.2
25-11-2019 12.6 (14:50) 2.9 (00:00) 7.8 5.28 (15:10) 2.5 (15:10) 0.4 0 0.4 0 0
24-11-2019 9.3 (14:00) 2.2 (00:00) 5.8 11.39 (15:30) 6.94 (15:50) 2.2 1 1.2 0 0
23-11-2019 6.5 (02:40) 1.3 (00:00) 3.9 9.17 (16:50) 5.56 (15:40) 25 0.6 13.4 5 6
22-11-2019 7.6 (20:30) 1.3 (00:00) 4.4 13.33 (10:50) 6.67 (14:20) 28.4 0 0.2 12.8 15.4
21-11-2019 6.6 (15:20) 1.4 (00:00) 4 5.83 (01:40) 3.33 (01:40) 0 0 0 0 0
20-11-2019 8 (14:50) -4.2 (-00:0) 1.9 7.22 (13:10) 3.61 (13:10) 0 0 0 0 0
19-11-2019 9.5 (14:50) -3.6 (-00:0) 3 11.94 (00:30) 5.28 (00:30) 0 0 0 0 0
18-11-2019 4.2 (13:20) 0.1 (00:00) 2.1 16.11 (08:40) 7.22 (15:20) 1.4 1.2 0 0 0.2
17-11-2019 2.5 (14:20) -0.4 (00:00) 1 7.22 (06:40) 4.17 (06:40) 2.4 0.2 0 1.6 0.6
16-11-2019 0.4 (16:10) -4.7 (-00:0) -2.1 3.33 (06:20) 1.94 (06:20) 15.2 0 0.4 11.2 3.6

Gráficas

Temp. máximas Temp. mínimas Temp. medias Precipitaciones Rachas de viento máximas Velocidades máximas media en intervalos de 10 minutos

Datos horarios

Fecha y hora oficial Temperatura (ºC) Velocidad del viento (km/h) Dirección del viento Racha (km/h) Dirección de racha Precipitación (mm) Presión (hPa) Tendencia (hPa) Humedad (%)
2019-12-15 23:00:00 3.2 0 Calma 11 Nordeste 0 -- -- 95
2019-12-15 22:00:00 3.6 0 Calma 5 Oeste 0 -- -- 93
2019-12-15 21:00:00 4.1 0 Calma 5 Nordeste 0 -- -- 92
2019-12-15 20:00:00 5 3 Oeste 5 Oeste 0 -- -- 89
2019-12-15 19:00:00 6.2 0 Calma 4 Nordeste 0 -- -- 85
2019-12-15 18:00:00 8 2 Oeste 6 Oeste 0 -- -- 76
2019-12-15 17:00:00 9.6 4 Sudoeste 22 Sudoeste 0 -- -- 70
2019-12-15 16:00:00 11.6 10 Sudoeste 21 Sudoeste 0 -- -- 61
2019-12-15 15:00:00 12.4 13 Sudoeste 25 Sudoeste 0 -- -- 59
2019-12-15 14:00:00 12.3 13 Sudoeste 22 Sudoeste 0 -- -- 62
2019-12-15 13:00:00 11.6 6 Sudoeste 12 Sudoeste 0 -- -- 68
2019-12-15 12:00:00 7.5 3 Sudeste 5 Sudeste 0 -- -- 96
2019-12-15 11:00:00 4 4 Este 8 Nordeste 0 -- -- 99
2019-12-15 10:00:00 1.6 0 Calma 4 Sudoeste 0 -- -- 98
2019-12-15 09:00:00 1.1 0 Calma 4 Oeste 0 -- -- 97
2019-12-15 08:00:00 1.5 0 Calma 7 Nordeste 0 -- -- 98
2019-12-15 07:00:00 1.5 4 Nordeste 5 Nordeste 0 -- -- 97
2019-12-15 06:00:00 2 0 Calma 4 Sudoeste 0 -- -- 97
2019-12-15 05:00:00 2.3 3 Oeste 8 Nordeste 0 -- -- 97
2019-12-15 04:00:00 2.4 2 Nordeste 5 Noroeste 0 -- -- 97
2019-12-15 03:00:00 2.4 3 Oeste 6 Noroeste 0 -- -- 96
2019-12-15 02:00:00 2.7 2 Nordeste 6 Noroeste 0 -- -- 96
2019-12-15 01:00:00 3.3 2 Sudoeste 6 Nordeste 0 -- -- 95
2019-12-15 00:00:00 4.1 2 Norte 5 Oeste 0 -- -- 95
2019-12-14 23:00:00 4.6 0 Calma 7 Noroeste 0 -- -- 94
2019-12-14 22:00:00 5.4 0 Calma 6 Noroeste 0 -- -- 93
2019-12-14 21:00:00 6.4 2 Sudoeste 8 Noroeste 0 -- -- 91
2019-12-14 20:00:00 7.2 0 Calma 6 Oeste 0 -- -- 89
2019-12-14 19:00:00 7.9 0 Calma 8 Noroeste 0 -- -- 86
2019-12-14 18:00:00 8.9 3 Oeste 8 Sudoeste 0 -- -- 81
2019-12-14 17:00:00 10.1 0 Calma 8 Sudoeste 0 -- -- 74
2019-12-14 16:00:00 10.4 6 Oeste 14 Oeste 0 -- -- 71
2019-12-14 15:00:00 11 6 Noroeste 19 Oeste 0 -- -- 69
2019-12-14 14:00:00 10.8 8 Oeste 14 Sudoeste 0 -- -- 71
2019-12-14 13:00:00 10.4 3 Oeste 15 Oeste 0 -- -- 75
2019-12-14 12:00:00 9.5 3 Sudeste 27 Oeste 0 -- -- 80
2019-12-14 11:00:00 9 11 Oeste 26 Oeste 0 -- -- 81
2019-12-14 10:00:00 9.1 14 Oeste 24 Oeste 0 -- -- 78
2019-12-14 09:00:00 9.2 14 Noroeste 25 Noroeste 0 -- -- 77
2019-12-14 08:00:00 9.9 17 Noroeste 28 Noroeste 0 -- -- 73
2019-12-14 07:00:00 8.6 4 Norte 20 Noroeste 0 -- -- 80
2019-12-14 06:00:00 9.3 12 Noroeste 26 Oeste 0 -- -- 77
2019-12-14 05:00:00 9.4 12 Oeste 25 Oeste 0 -- -- 77
2019-12-14 04:00:00 9.7 12 Noroeste 23 Oeste 0 -- -- 74
2019-12-14 03:00:00 9.6 9 Noroeste 26 Noroeste 0 -- -- 71
2019-12-14 02:00:00 9.7 16 Noroeste 30 Noroeste 0 -- -- 68
2019-12-14 01:00:00 9.3 12 Noroeste 28 Norte 0 -- -- 70
2019-12-14 00:00:00 9.4 12 Noroeste 26 Noroeste 0 -- -- 72
2019-12-13 23:00:00 9.4 7 Noroeste 30 Noroeste 0 -- -- 75
2019-12-13 22:00:00 9.8 12 Noroeste 26 Noroeste 0 -- -- 77
2019-12-13 21:00:00 10.1 17 Noroeste 31 Noroeste 0.2 -- -- 77
2019-12-13 20:00:00 10.1 10 Noroeste 35 Noroeste 0.4 -- -- 86
2019-12-13 19:00:00 10.3 14 Noroeste 28 Noroeste 1.4 -- -- 86
2019-12-13 18:00:00 10.3 14 Noroeste 29 Norte 2 -- -- 85
2019-12-13 17:00:00 10.1 14 Noroeste 25 Noroeste 1 -- -- 87
2019-12-13 16:00:00 9.8 12 Noroeste 26 Oeste 1.2 -- -- 87
2019-12-13 15:00:00 9.6 14 Noroeste 31 Noroeste 1.4 -- -- 85
2019-12-13 14:00:00 9.6 11 Noroeste 35 Noroeste 2.4 -- -- 88
2019-12-13 13:00:00 10 14 Norte 43 Noroeste 2.2 -- -- 84
2019-12-13 12:00:00 9.3 10 Noroeste 31 Noroeste 1.8 -- -- 86
2019-12-13 11:00:00 9.7 19 Noroeste 46 Noroeste 3.4 -- -- 83
2019-12-13 10:00:00 8.4 11 Noroeste 60 Noroeste 1.8 -- -- 90
2019-12-13 09:00:00 9.1 12 Noroeste 33 Noroeste 1.4 -- -- 87
2019-12-13 08:00:00 6.9 13 Noroeste 24 Noroeste 2.6 -- -- 99
2019-12-13 07:00:00 2.8 5 Nordeste 13 Norte 2.8 -- -- 99
2019-12-13 06:00:00 0.5 4 Este 14 Nordeste 3.2 -- -- 98
2019-12-13 05:00:00 0.5 3 Oeste 9 Nordeste 4 -- -- 98
2019-12-13 04:00:00 0.3 5 Nordeste 9 Nordeste 2.8 -- -- 97
2019-12-13 03:00:00 0.3 0 Calma 5 Noroeste 4.2 -- -- 97
2019-12-13 02:00:00 0.3 0 Calma 8 Nordeste 4.8 -- -- 97
2019-12-13 01:00:00 0.3 0 Calma 5 Nordeste 4.8 -- -- 97
2019-12-13 00:00:00 0.3 0 Calma 0 Calma 4.4 -- -- 97
2019-12-12 23:00:00 0.2 0 Calma 0 Calma 4.8 -- -- 97
2019-12-12 22:00:00 0.2 0 Calma 0 Calma 3 -- -- 97
2019-12-12 21:00:00 0.2 0 Calma 0 Calma 3.2 -- -- 96
2019-12-12 20:00:00 0.2 0 Calma 0 Calma 2.8 -- -- 96
2019-12-12 19:00:00 0.2 0 Calma 2 Norte 3.4 -- -- 96
2019-12-12 18:00:00 0.3 0 Calma 2 Norte 4.6 -- -- 95
2019-12-12 17:00:00 0.5 0 Calma 3 Oeste 4 -- -- 94
2019-12-12 16:00:00 0.9 0 Calma 7 Noroeste 3.6 -- -- 93
2019-12-12 15:00:00 2.5 4 Sudoeste 9 Sur 1.8 -- -- 92
2019-12-12 14:00:00 3.1 4 Sudoeste 10 Sudoeste 1.2 -- -- 94
2019-12-12 13:00:00 3.3 6 Sudoeste 9 Sudoeste 0.8 -- -- 94
2019-12-12 12:00:00 3.1 0 Calma 5 Sudeste 1.6 -- -- 94
2019-12-12 11:00:00 2.9 2 Este 5 Sur 0.6 -- -- 95
2019-12-12 10:00:00 2.8 3 Sudoeste 4 Sudoeste 0.8 -- -- 96
2019-12-12 09:00:00 2.5 2 Oeste 6 Oeste 0.2 -- -- 95
2019-12-12 08:00:00 2.5 0 Calma 10 Oeste 0.2 -- -- 94
2019-12-12 07:00:00 2.6 3 Sudoeste 13 Sudoeste 0 -- -- 92
2019-12-12 06:00:00 2.5 3 Sur 21 Oeste 0.6 -- -- 91
2019-12-12 05:00:00 2.6 10 Oeste 20 Noroeste 0.2 -- -- 92
2019-12-12 04:00:00 2.4 5 Norte 21 Oeste 0.2 -- -- 91
2019-12-12 03:00:00 2.4 9 Oeste 28 Oeste 0 -- -- 91
2019-12-12 02:00:00 2.2 10 Noroeste 21 Noroeste 0.2 -- -- 92
2019-12-12 01:00:00 2 3 Norte 19 Oeste 0.6 -- -- 92
2019-12-12 00:00:00 2.3 12 Noroeste 30 Oeste 0.2 -- -- 91
2019-12-11 23:00:00 2.2 19 Noroeste 29 Oeste 0.4 -- -- 90
2019-12-11 22:00:00 2.4 18 Noroeste 28 Oeste 0.8 -- -- 90
2019-12-11 21:00:00 2.7 16 Oeste 28 Noroeste 1 -- -- 89
2019-12-11 20:00:00 4.1 13 Noroeste 22 Noroeste 0 -- -- 79
2019-12-11 19:00:00 4.9 8 Noroeste 25 Noroeste 0 -- -- 64
2019-12-11 18:00:00 4.3 14 Noroeste 28 Noroeste 0 -- -- 72
2019-12-11 17:00:00 5.1 19 Noroeste 32 Noroeste 0 -- -- 72
2019-12-11 16:00:00 6.7 16 Noroeste 39 Noroeste 0 -- -- 56
2019-12-11 15:00:00 7.3 15 Noroeste 35 Noroeste 0 -- -- 58
2019-12-11 14:00:00 6.3 10 Norte 35 Noroeste 0 -- -- 74
2019-12-11 13:00:00 6.5 14 Noroeste 30 Oeste 0 -- -- 79
2019-12-11 12:00:00 5.4 8 Noroeste 26 Noroeste 0.4 -- -- 88
2019-12-11 11:00:00 5.5 4 Norte 19 Noroeste 0 -- -- 79
2019-12-11 10:00:00 4.1 3 Este 10 Noroeste 0 -- -- 83
2019-12-11 09:00:00 3.2 3 Norte 9 Sudoeste 0 -- -- 87
2019-12-11 08:00:00 2.8 2 Norte 6 Oeste 0 -- -- 88
2019-12-11 07:00:00 2.6 4 Este 9 Nordeste 0 -- -- 86
2019-12-11 06:00:00 1.9 2 Noroeste 7 Oeste 0 -- -- 89
2019-12-11 05:00:00 1.8 0 Calma 8 Sudoeste 0 -- -- 89
2019-12-11 04:00:00 2.4 0 Calma 12 Norte 0 -- -- 84
2019-12-11 03:00:00 1.9 3 Norte 8 Noroeste 0 -- -- 87
2019-12-11 02:00:00 2.4 5 Nordeste 15 Norte 0 -- -- 84
2019-12-11 01:00:00 1.2 3 Sudoeste 12 Noroeste 0 -- -- 91
2019-12-11 00:00:00 0.7 0 Calma 8 Nordeste 0 -- -- 90
2019-12-10 23:00:00 1.3 2 Oeste 8 Sudoeste 0 -- -- 89
2019-12-10 22:00:00 2 3 Oeste 5 Nordeste 0 -- -- 85
2019-12-10 21:00:00 3.1 3 Sudoeste 6 Oeste 0 -- -- 83
2019-12-10 20:00:00 4 3 Sur 5 Sudoeste 0 -- -- 82
2019-12-10 19:00:00 5.1 2 Nordeste 5 Nordeste 0 -- -- 79
2019-12-10 18:00:00 7.3 2 Sur 8 Nordeste 0 -- -- 73
2019-12-10 17:00:00 9.5 3 Sur 15 Sudoeste 0 -- -- 63
2019-12-10 16:00:00 12.3 9 Sudoeste 20 Sur 0 -- -- 53
2019-12-10 15:00:00 13.1 6 Sudoeste 15 Sudoeste 0 -- -- 50
2019-12-10 14:00:00 12.7 6 Sur 18 Sudoeste 0 -- -- 48
2019-12-10 13:00:00 11.3 10 Sur 33 Sudoeste 0 -- -- 49
2019-12-10 12:00:00 11.6 12 Sur 44 Nordeste 0 -- -- 43
2019-12-10 11:00:00 13.8 22 Nordeste 44 Nordeste 0 -- -- 26
2019-12-10 10:00:00 12.3 14 Norte 46 Nordeste 0 -- -- 26
2019-12-10 09:00:00 12 17 Norte 41 Nordeste 0 -- -- 24
2019-12-10 08:00:00 11.5 21 Norte 46 Noroeste 0 -- -- 19
2019-12-10 07:00:00 9.1 20 Noroeste 43 Noroeste 0 -- -- 23
2019-12-10 06:00:00 8.2 21 Norte 56 Nordeste 0 -- -- 34
2019-12-10 05:00:00 7.4 26 Noroeste 56 Noroeste 0 -- -- 38
2019-12-10 04:00:00 6.5 22 Norte 52 Norte 0 -- -- 46
2019-12-10 03:00:00 6.2 20 Norte 50 Nordeste 0 -- -- 54
2019-12-10 02:00:00 6.7 20 Noroeste 50 Noroeste 0 -- -- 57
2019-12-10 01:00:00 6.6 20 Noroeste 51 Noroeste 0 -- -- 60
2019-12-10 00:00:00 6.3 21 Norte 67 Norte 0 -- -- 57
2019-12-09 23:00:00 6.2 19 Norte 63 Nordeste 0 -- -- 60
2019-12-09 22:00:00 6.9 15 Norte 35 Norte 0 -- -- 62
2019-12-09 21:00:00 6.8 13 Norte 35 Norte 0 -- -- 59
2019-12-09 20:00:00 6.6 9 Norte 36 Norte 0 -- -- 61
2019-12-09 19:00:00 6.4 15 Noroeste 42 Noroeste 0 -- -- 65
2019-12-09 18:00:00 5.8 13 Noroeste 30 Nordeste 0 -- -- 69
2019-12-09 17:00:00 6.2 10 Noroeste 22 Norte 0 -- -- 76
2019-12-09 16:00:00 6.9 13 Noroeste 44 Norte 0 -- -- 69
2019-12-09 15:00:00 6.8 16 Noroeste 35 Noroeste 0.4 -- -- 77
2019-12-09 14:00:00 7.1 14 Noroeste 32 Norte 0 -- -- 76
2019-12-09 13:00:00 6.9 14 Noroeste 31 Noroeste 0.4 -- -- 74
2019-12-09 12:00:00 7.2 12 Noroeste 33 Noroeste 0.6 -- -- 78
2019-12-09 11:00:00 6.8 14 Noroeste 26 Noroeste 0.4 -- -- 80
2019-12-09 10:00:00 6.1 12 Noroeste 29 Noroeste 0.6 -- -- 82
2019-12-09 09:00:00 5.4 16 Oeste 30 Oeste 0.6 -- -- 88
2019-12-09 08:00:00 5.2 18 Oeste 36 Noroeste 0.4 -- -- 86
2019-12-09 07:00:00 5.6 17 Noroeste 42 Noroeste 0.2 -- -- 79
2019-12-09 06:00:00 6.9 18 Noroeste 32 Noroeste 0 -- -- 61
2019-12-09 05:00:00 -0.6 8 Norte 15 Nordeste 0 -- -- 97
2019-12-09 04:00:00 -1.6 3 Nordeste 10 Noroeste 0 -- -- 94
2019-12-09 03:00:00 -0.6 3 Sur 7 Nordeste 0 -- -- 94
2019-12-09 02:00:00 0.1 3 Norte 8 Nordeste 0 -- -- 93
2019-12-09 01:00:00 1.1 0 Calma 6 Sudoeste 0 -- -- 90
2019-12-09 00:00:00 2.5 4 Nordeste 13 Norte 0 -- -- 84
2019-12-08 23:00:00 4.9 7 Norte 26 Oeste 0 -- -- 78
2019-12-08 22:00:00 6.8 15 Noroeste 35 Noroeste 0 -- -- 70
2019-12-08 21:00:00 8.3 12 Noroeste 34 Oeste 0 -- -- 74
2019-12-08 20:00:00 8.8 21 Noroeste 35 Noroeste 0 -- -- 91
2019-12-08 19:00:00 8.3 5 Norte 20 Noroeste 0 -- -- 95
2019-12-08 18:00:00 8.5 4 Norte 15 Noroeste 0.8 -- -- 94
2019-12-08 17:00:00 9 0 Calma 5 Nordeste 1.4 -- -- 94
2019-12-08 16:00:00 9.2 2 Norte 6 Nordeste 0.4 -- -- 92
2019-12-08 15:00:00 9.7 6 Norte 30 Oeste 0 -- -- 86
2019-12-08 14:00:00 10.3 19 Noroeste 31 Oeste 0 -- -- 77
2019-12-08 13:00:00 10.7 6 Sudoeste 18 Oeste 0 -- -- 75
2019-12-08 12:00:00 7.7 3 Sudoeste 8 Sudoeste 0 -- -- 73
2019-12-08 11:00:00 3.7 2 Este 5 Este 0 -- -- 96
2019-12-08 10:00:00 0.4 2 Nordeste 7 Nordeste 0 -- -- 98
2019-12-08 09:00:00 -1.7 2 Sur 5 Oeste 0 -- -- 97
2019-12-08 08:00:00 -2.2 0 Calma 4 Noroeste 0 -- -- 97
2019-12-08 07:00:00 -2.2 2 Nordeste 4 Noroeste 0 -- -- 97
2019-12-08 06:00:00 -2.1 3 Norte 7 Noroeste 0 -- -- 96
2019-12-08 05:00:00 -2 0 Calma 6 Oeste 0 -- -- 97
2019-12-08 04:00:00 -1.9 2 Noroeste 5 Este 0 -- -- 97
2019-12-08 03:00:00 -1.6 3 Nordeste 6 Sudoeste 0 -- -- 95
2019-12-08 02:00:00 -1.1 2 Oeste 4 Sudoeste 0 -- -- 96
2019-12-08 01:00:00 -0.4 3 Oeste 6 Noroeste 0 -- -- 95
2019-12-08 00:00:00 0 0 Calma 4 Nordeste 0 -- -- 95
2019-12-07 23:00:00 1.1 0 Calma 3 Sudoeste 0 -- -- 95
2019-12-07 22:00:00 1.9 3 Noroeste 6 Nordeste 0 -- -- 95
2019-12-07 21:00:00 3 2 Nordeste 5 Sudoeste 0 -- -- 93
2019-12-07 20:00:00 4.1 3 Sudoeste 5 Noroeste 0 -- -- 90
2019-12-07 19:00:00 5.4 0 Calma 4 Sudoeste 0 -- -- 88
2019-12-07 18:00:00 7.3 0 Calma 6 Nordeste 0 -- -- 82
2019-12-07 17:00:00 9.6 4 Nordeste 12 Sudoeste 0 -- -- 73
2019-12-07 16:00:00 12.7 7 Sudoeste 11 Sudoeste 0 -- -- 62
2019-12-07 15:00:00 13 6 Sudoeste 14 Sudoeste 0 -- -- 61
2019-12-07 14:00:00 12.3 6 Sur 10 Sur 0 -- -- 61
2019-12-07 13:00:00 10.3 3 Sudoeste 8 Sudoeste 0 -- -- 67
2019-12-07 12:00:00 6.3 3 Este 5 Este 0 -- -- 80
2019-12-07 11:00:00 3.2 2 Sudeste 5 Nordeste 0 -- -- 98
2019-12-07 10:00:00 -0.1 0 Calma 4 Nordeste 0 -- -- 99
2019-12-07 09:00:00 -2.1 0 Calma 4 Noroeste 0 -- -- 97
2019-12-07 08:00:00 -2.5 3 Sudoeste 6 Sudoeste 0 -- -- 97
2019-12-07 07:00:00 -2.1 0 Calma 6 Nordeste 0 -- -- 97
2019-12-07 06:00:00 -2 3 Noroeste 6 Nordeste 0 -- -- 97
2019-12-07 05:00:00 -1.7 4 Nordeste 6 Sudoeste 0 -- -- 97
2019-12-07 04:00:00 -1.3 2 Sudoeste 9 Norte 0 -- -- 96
2019-12-07 03:00:00 -1.1 2 Nordeste 4 Sudeste 0 -- -- 96
2019-12-07 02:00:00 -0.8 0 Calma 5 Sudoeste 0 -- -- 96
2019-12-07 01:00:00 -0.1 0 Calma 5 Noroeste 0 -- -- 95
2019-12-07 00:00:00 0.7 2 Sur 3 Sur 0 -- -- 95
2019-12-06 23:00:00 1 0 Calma 4 Oeste 0 -- -- 93
2019-12-06 22:00:00 1.9 2 Sudoeste 4 Sudoeste 0 -- -- 93
2019-12-06 21:00:00 2.7 2 Noroeste 4 Sur 0 -- -- 90
2019-12-06 20:00:00 4.1 0 Calma 7 Norte 0 -- -- 89
2019-12-06 19:00:00 5.5 0 Calma 15 Norte 0 -- -- 83
2019-12-06 18:00:00 7.5 6 Norte 13 Norte 0 -- -- 76
2019-12-06 17:00:00 9.5 3 Oeste 5 Sudoeste 0 -- -- 70
2019-12-06 16:00:00 10.7 3 Nordeste 8 Sudoeste 0 -- -- 67
2019-12-06 15:00:00 11.1 0 Calma 10 Sudoeste 0 -- -- 63
2019-12-06 14:00:00 11.6 6 Sudoeste 11 Sur 0 -- -- 63
2019-12-06 13:00:00 8.5 4 Este 6 Este 0 -- -- 78
2019-12-06 12:00:00 4.7 3 Nordeste 4 Este 0 -- -- 95
2019-12-06 11:00:00 2.7 0 Calma 3 Norte 0 -- -- 97
2019-12-06 10:00:00 1.6 0 Calma 3 Norte 0 -- -- 97
2019-12-06 09:00:00 0.7 2 Sudoeste 4 Sudoeste 0 -- -- 97
2019-12-06 08:00:00 1 0 Calma 3 Este 0 -- -- 96
2019-12-06 07:00:00 1.5 0 Calma 5 Noroeste 0 -- -- 96
2019-12-06 06:00:00 2 3 Oeste 6 Nordeste 0 -- -- 94
2019-12-06 05:00:00 2.7 3 Noroeste 8 Oeste 0 -- -- 96
2019-12-06 04:00:00 2.7 0 Calma 4 Oeste 0 -- -- 96
2019-12-06 03:00:00 2.4 0 Calma 3 Noroeste 0 -- -- 96
2019-12-06 02:00:00 1.9 0 Calma 3 Sudoeste 0 -- -- 96
2019-12-06 01:00:00 1.4 0 Calma 4 Nordeste 0 -- -- 96
2019-12-06 00:00:00 1.2 2 Oeste 4 Nordeste 0 -- -- 95
2019-12-05 23:00:00 1.3 3 Sudoeste 5 Oeste 0 -- -- 94
2019-12-05 22:00:00 1.8 0 Calma 5 Oeste 0 -- -- 92
2019-12-05 21:00:00 2.7 0 Calma 5 Oeste 0 -- -- 91
2019-12-05 20:00:00 3.9 3 Sudoeste 8 Nordeste 0 -- -- 90
2019-12-05 19:00:00 5.1 0 Calma 6 Nordeste 0 -- -- 86
2019-12-05 18:00:00 7 6 Oeste 11 Sudoeste 0 -- -- 79
2019-12-05 17:00:00 8.6 6 Oeste 17 Sudoeste 0 -- -- 73
2019-12-05 16:00:00 11.1 6 Sudoeste 14 Sudoeste 0 -- -- 63
2019-12-05 15:00:00 11.5 6 Sur 15 Sudoeste 0 -- -- 59
2019-12-05 14:00:00 11.2 6 Sur 17 Sudoeste 0 -- -- 61
2019-12-05 13:00:00 10.1 7 Sur 15 Sudoeste 0 -- -- 62
2019-12-05 12:00:00 8.3 8 Sudoeste 15 Sudoeste 0 -- -- 69
2019-12-05 11:00:00 5.2 3 Sudoeste 7 Nordeste 0 -- -- 80
2019-12-05 10:00:00 1.9 4 Sur 18 Sudoeste 0 -- -- 95
2019-12-05 09:00:00 -0.9 2 Norte 10 Noroeste 0 -- -- 96
2019-12-05 08:00:00 -0.8 3 Norte 9 Noroeste 0 -- -- 94
2019-12-05 07:00:00 -0.2 3 Nordeste 7 Este 0 -- -- 93
2019-12-05 06:00:00 1.1 0 Calma 10 Nordeste 0 -- -- 93
2019-12-05 05:00:00 0.8 4 Nordeste 10 Sudoeste 0 -- -- 94
2019-12-05 04:00:00 0.9 3 Sudoeste 9 Sudoeste 0 -- -- 94
2019-12-05 03:00:00 0.9 4 Norte 8 Noroeste 0 -- -- 94
2019-12-05 02:00:00 0.8 3 Oeste 11 Nordeste 0 -- -- 93
2019-12-05 01:00:00 0.6 3 Norte 10 Nordeste 0 -- -- 93
2019-12-05 00:00:00 1.5 0 Calma 8 Oeste 0 -- -- 91
2019-12-04 23:00:00 2.1 5 Noroeste 14 Sudoeste 0 -- -- 89
2019-12-04 22:00:00 3.6 3 Sudoeste 8 Sudoeste 0 -- -- 85
2019-12-04 21:00:00 5.1 3 Oeste 6 Nordeste 0 -- -- 80
2019-12-04 20:00:00 6.3 5 Sudoeste 16 Sudoeste 0 -- -- 73
2019-12-04 19:00:00 6.7 5 Sudoeste 28 Nordeste 0 -- -- 71
2019-12-04 18:00:00 9.9 14 Nordeste 37 Nordeste 0 -- -- 44
2019-12-04 17:00:00 10.6 15 Norte 38 Nordeste 0 -- -- 41
2019-12-04 16:00:00 9.4 2 Nordeste 16 Sur 0 -- -- 59
2019-12-04 15:00:00 8.6 6 Sur 14 Sudoeste 0 -- -- 65
2019-12-04 14:00:00 6.2 8 Sudoeste 14 Sudoeste 0 -- -- 77
2019-12-04 13:00:00 5.1 2 Sudeste 13 Sudoeste 0 -- -- 81
2019-12-04 12:00:00 3 6 Sudoeste 17 Sudoeste 0 -- -- 89
2019-12-04 11:00:00 2.3 5 Noroeste 10 Oeste 0 -- -- 88
2019-12-04 10:00:00 0.6 0 Calma 6 Oeste 0 -- -- 96
2019-12-04 09:00:00 -2.8 3 Nordeste 6 Noroeste 0 -- -- 95
2019-12-04 08:00:00 -2.5 3 Oeste 9 Nordeste 0 -- -- 96
2019-12-04 07:00:00 -2.5 3 Sudoeste 8 Nordeste 0 -- -- 96
2019-12-04 06:00:00 -2.5 0 Calma 7 Noroeste 0 -- -- 95
2019-12-04 05:00:00 -2.3 0 Calma 8 Nordeste 0 -- -- 96
2019-12-04 04:00:00 -2.2 0 Calma 5 Sudoeste 0 -- -- 96
2019-12-04 03:00:00 -2 3 Sudoeste 4 Sudoeste 0 -- -- 95
2019-12-04 02:00:00 -2 0 Calma 6 Oeste 0 -- -- 95
2019-12-04 01:00:00 -1.8 0 Calma 3 Nordeste 0 -- -- 95
2019-12-04 00:00:00 -1.6 0 Calma 4 Sudoeste 0 -- -- 95
2019-12-03 23:00:00 -1.5 0 Calma 4 Este 0 -- -- 94
2019-12-03 22:00:00 -1 2 Oeste 5 Nordeste 0 -- -- 93
2019-12-03 21:00:00 -0.3 2 Sudoeste 4 Sudoeste 0 -- -- 92
2019-12-03 20:00:00 0.7 0 Calma 7 Noroeste 0 -- -- 91
2019-12-03 19:00:00 1.9 0 Calma 5 Noroeste 0 -- -- 86
2019-12-03 18:00:00 3.5 2 Norte 6 Nordeste 0 -- -- 80
2019-12-03 17:00:00 6.3 2 Sudoeste 14 Sudoeste 0 -- -- 70
2019-12-03 16:00:00 9.4 6 Sudoeste 11 Sur 0 -- -- 59
2019-12-03 15:00:00 9.5 7 Sudoeste 12 Sudoeste 0 -- -- 59
2019-12-03 14:00:00 8.9 5 Sur 10 Sur 0 -- -- 58
2019-12-03 13:00:00 6.7 3 Sur 8 Este 0 -- -- 65
2019-12-03 12:00:00 3.4 5 Este 8 Este 0 -- -- 76
2019-12-03 11:00:00 1.1 3 Este 5 Este 0 -- -- 88
2019-12-03 10:00:00 -1.3 0 Calma 6 Nordeste 0 -- -- 97
2019-12-03 09:00:00 -4.6 2 Nordeste 5 Sudoeste 0 -- -- 95
2019-12-03 08:00:00 -4.3 0 Calma 4 Sudoeste 0 -- -- 96
2019-12-03 07:00:00 -4.1 3 Oeste 5 Oeste 0 -- -- 96
2019-12-03 06:00:00 -3.8 0 Calma 4 Noroeste 0 -- -- 95
2019-12-03 05:00:00 -3.9 0 Calma 4 Este 0 -- -- 95
2019-12-03 04:00:00 -3.5 2 Oeste 7 Noroeste 0 -- -- 97
2019-12-03 03:00:00 -3 2 Sudeste 4 Oeste 0 -- -- 95
2019-12-03 02:00:00 -2.7 0 Calma 5 Nordeste 0 -- -- 94
2019-12-03 01:00:00 -2 0 Calma 4 Sudoeste 0 -- -- 94
2019-12-03 00:00:00 -1.3 0 Calma 5 Sur 0 -- -- 93
2019-12-02 23:00:00 -0.7 0 Calma 7 Sudoeste 0 -- -- 92
2019-12-02 22:00:00 0.2 5 Sur 13 Sudoeste 0 -- -- 90
2019-12-02 21:00:00 1.6 7 Sudoeste 15 Sudoeste 0 -- -- 85
2019-12-02 20:00:00 5.4 12 Nordeste 38 Nordeste 0 -- -- 65
2019-12-02 19:00:00 6 14 Norte 40 Norte 0 -- -- 63
2019-12-02 18:00:00 6.2 16 Norte 48 Nordeste 0 -- -- 63
2019-12-02 17:00:00 6.6 18 Norte 46 Norte 0 -- -- 63
2019-12-02 16:00:00 7.8 17 Norte 37 Nordeste 0 -- -- 57
2019-12-02 15:00:00 8.3 17 Norte 38 Norte 0 -- -- 56
2019-12-02 14:00:00 8.6 13 Norte 42 Nordeste 0 -- -- 56
2019-12-02 13:00:00 8.6 20 Nordeste 38 Nordeste 0 -- -- 55
2019-12-02 12:00:00 8 22 Nordeste 46 Nordeste 0 -- -- 58
2019-12-02 11:00:00 5.4 5 Sudeste 22 Sudoeste 0 -- -- 77
2019-12-02 10:00:00 2.5 7 Sur 18 Sudoeste 0 -- -- 86
2019-12-02 09:00:00 0.5 8 Sur 33 Nordeste 0 -- -- 88
2019-12-02 08:00:00 2.5 11 Norte 33 Este 0 -- -- 85
2019-12-02 07:00:00 -0.1 6 Sudoeste 17 Sudoeste 0 -- -- 92
2019-12-02 06:00:00 0.5 7 Sudoeste 16 Sudoeste 0 -- -- 90
2019-12-02 05:00:00 0.8 6 Sudoeste 23 Nordeste 0 -- -- 88
2019-12-02 04:00:00 0.3 7 Sudoeste 16 Sudoeste 0 -- -- 96
2019-12-02 03:00:00 -0.6 7 Sur 14 Sur 0 -- -- 96
2019-12-02 02:00:00 -0.2 5 Sudoeste 13 Sur 0 -- -- 97
2019-12-02 01:00:00 -0.3 7 Sudoeste 13 Sudoeste 0 -- -- 97
2019-12-02 00:00:00 -0.3 3 Sudoeste 7 Sudoeste 0 -- -- 96
2019-12-01 23:00:00 0 5 Sudoeste 9 Nordeste 0 -- -- 94
2019-12-01 22:00:00 1 2 Sudeste 10 Oeste 0 -- -- 94
2019-12-01 21:00:00 2 4 Sudoeste 16 Sudoeste 0 -- -- 92
2019-12-01 20:00:00 2.5 5 Sudoeste 11 Sudoeste 0 -- -- 92
2019-12-01 19:00:00 3.7 4 Sudoeste 10 Sudoeste 0 -- -- 88
2019-12-01 18:00:00 6.3 3 Nordeste 23 Norte 0 -- -- 70
2019-12-01 17:00:00 7.7 11 Noroeste 24 Noroeste 0 -- -- 62
2019-12-01 16:00:00 9.1 8 Noroeste 20 Oeste 0 -- -- 63
2019-12-01 15:00:00 9.6 7 Oeste 14 Sudoeste 0 -- -- 70
2019-12-01 14:00:00 8.6 2 Nordeste 11 Sur 0 -- -- 73
2019-12-01 13:00:00 9.4 6 Sur 11 Sur 0 -- -- 71
2019-12-01 12:00:00 7.3 4 Sudeste 6 Sur 0 -- -- 88
2019-12-01 11:00:00 4.9 0 Calma 5 Este 0 -- -- 99
2019-12-01 10:00:00 2.4 0 Calma 5 Sudeste 0 -- -- 99
2019-12-01 09:00:00 1.5 2 Noroeste 5 Noroeste 0 -- -- 98
2019-12-01 08:00:00 1.1 2 Oeste 8 Sudoeste 0 -- -- 98
2019-12-01 07:00:00 1.4 2 Oeste 6 Sudoeste 0 -- -- 98
2019-12-01 06:00:00 2 3 Noroeste 6 Noroeste 0 -- -- 98
2019-12-01 05:00:00 1.7 0 Calma 7 Noroeste 0 -- -- 97
2019-12-01 04:00:00 2 2 Este 6 Noroeste 0 -- -- 97
2019-12-01 03:00:00 2.8 2 Noroeste 8 Nordeste 0 -- -- 96
2019-12-01 02:00:00 3.6 4 Nordeste 8 Noroeste 0 -- -- 96
2019-12-01 01:00:00 4.6 5 Norte 9 Oeste 0 -- -- 97
2019-12-01 00:00:00 4.8 5 Nordeste 10 Nordeste 0 -- -- 96
2019-11-30 23:00:00 5.2 3 Sudoeste 9 Oeste 0 -- -- 96
2019-11-30 22:00:00 5.5 5 Norte 19 Este 0.2 -- -- 95
2019-11-30 21:00:00 5.9 6 Noroeste 30 Norte 2.6 -- -- 93
2019-11-30 20:00:00 6.9 8 Oeste 33 Noroeste 7.2 -- -- 89
2019-11-30 19:00:00 9.6 7 Sudoeste 17 Sudoeste 7.8 -- -- 93
2019-11-30 18:00:00 10.1 7 Sudoeste 23 Sudoeste 1.4 -- -- 89
2019-11-30 17:00:00 10.5 10 Sudeste 21 Sudeste 0.4 -- -- 86
2019-11-30 16:00:00 9.7 8 Sudoeste 19 Sudoeste 0 -- -- 90
2019-11-30 15:00:00 7.5 2 Nordeste 6 Nordeste 0 -- -- 96
2019-11-30 14:00:00 6.8 0 Calma 6 Oeste 0 -- -- 97
2019-11-30 13:00:00 5.6 4 Oeste 8 Sudoeste 0 -- -- 97
2019-11-30 12:00:00 4.8 0 Calma 7 Nordeste 0.2 -- -- 97
2019-11-30 11:00:00 3.8 0 Calma 7 Nordeste 0 -- -- 96
2019-11-30 10:00:00 2.7 2 Noroeste 8 Sur 0 -- -- 95
2019-11-30 09:00:00 2 5 Norte 14 Norte 0.4 -- -- 95
2019-11-30 08:00:00 1 2 Nordeste 6 Sudoeste 0 -- -- 95
2019-11-30 07:00:00 0.2 2 Nordeste 5 Sudeste 0 -- -- 95
2019-11-30 06:00:00 -0.2 4 Noroeste 10 Nordeste 0 -- -- 96
2019-11-30 05:00:00 -1 2 Este 9 Noroeste 0 -- -- 95
2019-11-30 04:00:00 -1.2 4 Sudoeste 7 Noroeste 0 -- -- 95
2019-11-30 03:00:00 -1.2 2 Norte 9 Nordeste 0 -- -- 96
2019-11-30 02:00:00 -1.1 5 Norte 8 Nordeste 0 -- -- 95
2019-11-30 01:00:00 -0.2 3 Oeste 6 Nordeste 0 -- -- 95
2019-11-30 00:00:00 0 3 Nordeste 6 Noroeste 0 -- -- 94
2019-11-29 23:00:00 0.5 0 Calma 5 Nordeste 0 -- -- 92
2019-11-29 22:00:00 1.1 0 Calma 5 Oeste 0 -- -- 90
2019-11-29 21:00:00 1.8 3 Noroeste 6 Norte 0 -- -- 90
2019-11-29 20:00:00 3 2 Oeste 6 Oeste 0 -- -- 87
2019-11-29 19:00:00 4.7 2 Nordeste 6 Nordeste 0 -- -- 77
2019-11-29 18:00:00 7 2 Nordeste 22 Noroeste 0 -- -- 70
2019-11-29 17:00:00 10 14 Oeste 28 Oeste 0 -- -- 62
2019-11-29 16:00:00 12 15 Oeste 30 Oeste 0 -- -- 54
2019-11-29 15:00:00 12.9 10 Noroeste 23 Noroeste 0 -- -- 46
2019-11-29 14:00:00 13 9 Noroeste 21 Norte 0 -- -- 47
2019-11-29 13:00:00 12.6 12 Oeste 27 Oeste 0 -- -- 58
2019-11-29 12:00:00 11.8 9 Noroeste 29 Nordeste 0 -- -- 58
2019-11-29 11:00:00 10.2 19 Noroeste 33 Oeste 0 -- -- 73
2019-11-29 10:00:00 8.3 14 Noroeste 31 Oeste 0 -- -- 85
2019-11-29 09:00:00 5.2 3 Nordeste 9 Este 0 -- -- 95
2019-11-29 08:00:00 5.7 5 Nordeste 10 Norte 0 -- -- 96
2019-11-29 07:00:00 6.8 3 Nordeste 11 Norte 0 -- -- 97
2019-11-29 06:00:00 7.7 2 Nordeste 6 Este 0 -- -- 98
2019-11-29 05:00:00 8 0 Calma 4 Nordeste 0.6 -- -- 98
2019-11-29 04:00:00 8.1 3 Norte 4 Sudoeste 0 -- -- 98
2019-11-29 03:00:00 8.1 0 Calma 6 Nordeste 0.2 -- -- 98
2019-11-29 02:00:00 8 3 Nordeste 6 Nordeste 0.2 -- -- 98
2019-11-29 01:00:00 8.2 0 Calma 4 Norte 0.4 -- -- 98
2019-11-29 00:00:00 8.2 3 Norte 5 Nordeste 0.4 -- -- 97
2019-11-28 23:00:00 8.3 3 Oeste 8 Sudoeste 1 -- -- 97
2019-11-28 22:00:00 8.2 3 Sudoeste 8 Este 1.4 -- -- 97
2019-11-28 21:00:00 8.3 4 Oeste 12 Sudoeste 0.8 -- -- 97
2019-11-28 20:00:00 8.2 4 Oeste 9 Oeste 1.6 -- -- 96
2019-11-28 19:00:00 8.4 4 Nordeste 10 Noroeste 0.6 -- -- 95
2019-11-28 18:00:00 8.7 6 Oeste 20 Oeste 1.2 -- -- 94
2019-11-28 17:00:00 8.7 10 Sudoeste 20 Sudoeste 0.2 -- -- 94
2019-11-28 16:00:00 8.7 4 Oeste 13 Oeste 0 -- -- 94
2019-11-28 15:00:00 8.7 4 Sudoeste 15 Sudoeste 0.2 -- -- 93
2019-11-28 14:00:00 9.1 8 Sudoeste 15 Sudoeste 0 -- -- 92
2019-11-28 13:00:00 9.4 6 Sudoeste 10 Sudoeste 0 -- -- 93
2019-11-28 12:00:00 8.8 0 Calma 6 Sudoeste 0.2 -- -- 95
2019-11-28 11:00:00 8.3 4 Sur 8 Noroeste 0 -- -- 96
2019-11-28 10:00:00 7.8 3 Sur 10 Este 0 -- -- 98
2019-11-28 09:00:00 6.7 7 Noroeste 11 Noroeste 0 -- -- 97
2019-11-28 08:00:00 6.4 3 Noroeste 12 Nordeste 0 -- -- 97
2019-11-28 07:00:00 6.4 3 Sudoeste 8 Sudoeste 0 -- -- 97
2019-11-28 06:00:00 6.4 4 Noroeste 9 Sudoeste 0.8 -- -- 97
2019-11-28 05:00:00 6.4 2 Sudoeste 9 Noroeste 0 -- -- 97
2019-11-28 04:00:00 6.2 3 Nordeste 8 Nordeste 0 -- -- 97
2019-11-28 03:00:00 5.9 7 Oeste 10 Noroeste 0 -- -- 97
2019-11-28 02:00:00 5.7 3 Oeste 8 Oeste 0 -- -- 97
2019-11-28 01:00:00 5.6 2 Sudeste 4 Nordeste 0.6 -- -- 96
2019-11-28 00:00:00 5.6 0 Calma 6 Norte 0.8 -- -- 96
2019-11-27 23:00:00 5.6 4 Noroeste 6 Noroeste 2.6 -- -- 95
2019-11-27 22:00:00 5.6 2 Nordeste 10 Norte 1.6 -- -- 93
2019-11-27 21:00:00 5.9 9 Norte 13 Norte 2.6 -- -- 91
2019-11-27 20:00:00 6.8 2 Noroeste 6 Noroeste 1.4 -- -- 92
2019-11-27 19:00:00 7.4 0 Calma 7 Nordeste 1.6 -- -- 91
2019-11-27 18:00:00 8 5 Oeste 14 Sudoeste 0.6 -- -- 87
2019-11-27 17:00:00 9 4 Sudoeste 13 Noroeste 0 -- -- 79
2019-11-27 16:00:00 9.7 3 Sudoeste 8 Sudoeste 0 -- -- 77
2019-11-27 15:00:00 10.2 3 Sudeste 11 Oeste 0 -- -- 67
2019-11-27 14:00:00 10.1 3 Nordeste 13 Este 0 -- -- 66
2019-11-27 06:00:00 6.9 4 Oeste 13 Oeste 0 -- -- 81
2019-11-27 05:00:00 8.2 5 Norte 26 Noroeste 0 -- -- 74
2019-11-27 04:00:00 9.1 10 Oeste 23 Oeste 0 -- -- 83
2019-11-27 03:00:00 8.8 3 Oeste 12 Noroeste 0 -- -- 92
2019-11-27 02:00:00 9.4 4 Sudoeste 26 Norte 1.2 -- -- 88
2019-11-27 01:00:00 10 12 Noroeste 35 Sur 10.8 -- -- 86
2019-11-27 00:00:00 11.8 15 Sur 31 Sudoeste 0 -- -- 80
2019-11-26 23:00:00 12.1 9 Sur 31 Sudoeste 0 -- -- 78
2019-11-26 22:00:00 12.2 14 Sur 28 Sur 0 -- -- 77
2019-11-26 21:00:00 11.8 15 Sur 28 Sur 0 -- -- 80
2019-11-26 20:00:00 11.4 8 Sudoeste 26 Sudoeste 0.2 -- -- 83
2019-11-26 19:00:00 11.8 15 Sudoeste 28 Sudoeste 0 -- -- 77
2019-11-26 18:00:00 11.9 3 Este 19 Sudoeste 0 -- -- 77
2019-11-26 17:00:00 12.4 8 Sudoeste 20 Sudoeste 0 -- -- 74
2019-11-26 16:00:00 12.1 9 Oeste 21 Sur 0 -- -- 75
2019-11-26 15:00:00 11.8 7 Sudoeste 12 Sudoeste 0 -- -- 76
2019-11-26 14:00:00 11.2 3 Sur 10 Norte 0.2 -- -- 81
2019-11-26 13:00:00 10.8 3 Este -- -- -- -- -- 76
2019-11-26 12:00:00 9.2 3 Sudeste 10 Nordeste 0 -- -- 85
2019-11-26 11:00:00 5.5 3 Este 6 Sur 0 -- -- 99
2019-11-26 10:00:00 3.3 2 Oeste 7 Oeste 0 -- -- 98
2019-11-26 09:00:00 1.2 2 Este 5 Noroeste 0 -- -- 97
2019-11-26 08:00:00 1.3 4 Noroeste 9 Noroeste 0 -- -- 98
2019-11-26 07:00:00 1 3 Norte 8 Este 0 -- -- 97
2019-11-26 06:00:00 1.4 4 Norte 8 Noroeste 0 -- -- 97
2019-11-26 05:00:00 1.3 0 Calma 9 Noroeste 0 -- -- 96
2019-11-26 04:00:00 1.9 3 Sudoeste 6 Nordeste 0 -- -- 97
2019-11-26 03:00:00 1.9 2 Norte 7 Este 0 -- -- 96
2019-11-26 02:00:00 2.5 0 Calma 6 Oeste 0 -- -- 96
2019-11-26 01:00:00 3.1 0 Calma 8 Noroeste 0 -- -- 95
2019-11-26 00:00:00 3.8 3 Sur 8 Sudoeste 0 -- -- 94
2019-11-25 23:00:00 4.2 2 Norte 7 Nordeste 0 -- -- 95
2019-11-25 22:00:00 4.5 2 Oeste 4 Noroeste 0 -- -- 94
2019-11-25 21:00:00 5.2 0 Calma 11 Noroeste 0 -- -- 92
2019-11-25 20:00:00 6.1 3 Norte 9 Noroeste 0 -- -- 89
2019-11-25 19:00:00 7.1 5 Norte 11 Norte 0 -- -- 85
2019-11-25 18:00:00 8.8 6 Norte 13 Norte 0 -- -- 81
2019-11-25 17:00:00 10.9 0 Calma 13 Noroeste 0 -- -- 79
2019-11-25 16:00:00 11.9 7 Oeste 19 Oeste 0 -- -- 75
2019-11-25 15:00:00 12.6 5 Sudoeste 12 Oeste 0 -- -- 72
2019-11-25 14:00:00 12.2 3 Sur 10 Sudoeste 0 -- -- 72
2019-11-25 13:00:00 11.3 3 Sur 9 Sudoeste 0 -- -- 77
2019-11-25 12:00:00 9.4 5 Sudoeste 11 Sudoeste 0 -- -- 87
2019-11-25 11:00:00 7.9 3 Sudeste 5 Sur 0 -- -- 93
2019-11-25 10:00:00 5.1 3 Sudoeste 6 Nordeste 0.4 -- -- 97
2019-11-25 09:00:00 4.2 4 Nordeste 8 Nordeste 0 -- -- 97
2019-11-25 08:00:00 3.7 3 Sudoeste 8 Nordeste 0 -- -- 97
2019-11-25 07:00:00 4 2 Sur 9 Noroeste 0 -- -- 96
2019-11-25 06:00:00 4.2 0 Calma 6 Este 0 -- -- 96
2019-11-25 05:00:00 3.9 4 Sur 8 Sudoeste 0 -- -- 96
2019-11-25 04:00:00 3.9 3 Noroeste 8 Este 0 -- -- 96
2019-11-25 03:00:00 3.5 2 Sudoeste 7 Oeste 0 -- -- 96
2019-11-25 02:00:00 3.3 6 Noroeste 13 Noroeste 0 -- -- 96
2019-11-25 01:00:00 3.1 0 Calma 6 Sudoeste 0 -- -- 95
2019-11-25 00:00:00 3 3 Nordeste 8 Oeste 0 -- -- 95
2019-11-24 23:00:00 2.7 3 Sudoeste 13 Noroeste 0 -- -- 95
2019-11-24 22:00:00 2.2 3 Sur 8 Este 0 -- -- 94
2019-11-24 21:00:00 2.3 2 Este 5 Noroeste 0 -- -- 92
2019-11-24 20:00:00 3.6 2 Este 9 Nordeste 0 -- -- 88
2019-11-24 19:00:00 5.3 3 Norte 21 Noroeste 0 -- -- 82
2019-11-24 18:00:00 5.9 12 Norte 28 Noroeste 0 -- -- 83
2019-11-24 17:00:00 6.4 15 Noroeste 33 Noroeste 0 -- -- 80
2019-11-24 16:00:00 8.3 16 Oeste 41 Noroeste 0 -- -- 71
2019-11-24 15:00:00 8.3 16 Noroeste 35 Nordeste 0 -- -- 71
2019-11-24 14:00:00 9.3 15 Nordeste 25 Nordeste 0 -- -- 60
2019-11-24 13:00:00 8 9 Noroeste 34 Oeste 0 -- -- 70
2019-11-24 12:00:00 8.3 6 Nordeste 21 Nordeste 0 -- -- 72
2019-11-24 11:00:00 6.7 6 Nordeste 18 Nordeste 0 -- -- 83
2019-11-24 10:00:00 4 6 Sudoeste 22 Sudoeste 0 -- -- 94
2019-11-24 09:00:00 3 4 Nordeste 28 Oeste 0.4 -- -- 93
2019-11-24 08:00:00 2.7 14 Noroeste 31 Noroeste 0.4 -- -- 92
2019-11-24 07:00:00 3.1 14 Noroeste 26 Oeste 0.4 -- -- 91
2019-11-24 06:00:00 3.1 13 Noroeste 28 Noroeste 0.2 -- -- 92
2019-11-24 05:00:00 3.4 10 Noroeste 18 Oeste 0.2 -- -- 91
2019-11-24 04:00:00 3.3 3 Nordeste 26 Oeste 0.4 -- -- 92
2019-11-24 03:00:00 3.4 8 Noroeste 22 Oeste 0 -- -- 89
2019-11-24 02:00:00 3.9 5 Norte 22 Noroeste 0 -- -- 88
2019-11-24 01:00:00 3.8 14 Noroeste 24 Noroeste 0.2 -- -- 90
2019-11-24 00:00:00 3.7 6 Noroeste 19 Noroeste 0 -- -- 90
2019-11-23 23:00:00 3.1 0 Calma 15 Noroeste 0.6 -- -- 93
2019-11-23 22:00:00 3.4 13 Noroeste 26 Oeste 1.8 -- -- 90
2019-11-23 21:00:00 4 10 Noroeste 24 Noroeste 1 -- -- 85
2019-11-23 20:00:00 3.7 7 Noroeste 18 Oeste 1.2 -- -- 91
2019-11-23 19:00:00 4.1 6 Noroeste 29 Noroeste 1.4 -- -- 87
2019-11-23 18:00:00 4.3 12 Noroeste 24 Noroeste 0.6 -- -- 84
2019-11-23 17:00:00 4.6 12 Noroeste 33 Noroeste 0.6 -- -- 87
2019-11-23 16:00:00 5.1 12 Noroeste 30 Noroeste 0.4 -- -- 85
2019-11-23 15:00:00 5 11 Noroeste 30 Noroeste 0.6 -- -- 87
2019-11-23 14:00:00 2.9 3 Este 10 Norte 0.8 -- -- 96
2019-11-23 13:00:00 1.7 3 Este 7 Nordeste 2 -- -- 95
2019-11-23 12:00:00 2 3 Sur 5 Sur 3 -- -- 93
2019-11-23 11:00:00 2.7 0 Calma 5 Sudeste 1.8 -- -- 94
2019-11-23 10:00:00 2.6 0 Calma 4 Sur 0.6 -- -- 95
2019-11-23 09:00:00 2.4 2 Oeste 10 Sudoeste 2 -- -- 93
2019-11-23 08:00:00 3.5 5 Oeste 22 Oeste 5 -- -- 88
2019-11-23 07:00:00 5.4 0 Calma 11 Oeste 1 -- -- 95
2019-11-23 06:00:00 5.8 5 Oeste 11 Sudoeste 0.2 -- -- 94
2019-11-23 05:00:00 5.9 6 Oeste 12 Oeste 0.2 -- -- 94
2019-11-23 04:00:00 6 7 Sudoeste 15 Sudoeste 0 -- -- 94
2019-11-23 03:00:00 6.3 3 Oeste 13 Oeste 0 -- -- 92
2019-11-23 02:00:00 6.4 8 Sudoeste 19 Sudoeste 0.2 -- -- 92
2019-11-23 01:00:00 6.3 11 Oeste 19 Oeste 0 -- -- 92
2019-11-23 00:00:00 6.4 3 Nordeste 19 Sudoeste 0 -- -- 92
2019-11-22 23:00:00 6.8 5 Sudoeste 25 Sudeste 1 -- -- 91
2019-11-22 22:00:00 7 5 Sudoeste 36 Sudoeste 9.6 -- -- 92
2019-11-22 21:00:00 7.3 13 Sur 37 Sur 1.4 -- -- 88
2019-11-22 20:00:00 7.1 14 Sudeste 38 Sudoeste 1.2 -- -- 85
2019-11-22 19:00:00 6.3 11 Sudoeste 32 Sur 2.2 -- -- 88
2019-11-22 18:00:00 5.9 18 Sudoeste 44 Sudoeste 4.4 -- -- 87
2019-11-22 17:00:00 5.9 19 Sudoeste 45 Sudoeste 4.2 -- -- 85
2019-11-22 16:00:00 5.9 18 Sur 46 Sudoeste 2.2 -- -- 85
2019-11-22 15:00:00 5.8 23 Sudoeste 46 Sudoeste 0.4 -- -- 86
2019-11-22 14:00:00 5.8 19 Sur 48 Sudoeste 0.8 -- -- 84
2019-11-22 13:00:00 6 21 Sudoeste 41 Sudoeste 0.8 -- -- 85
2019-11-22 12:00:00 6.5 18 Sur 44 Sudeste 0.2 -- -- 78
2019-11-22 11:00:00 7.2 18 Sur 48 Sur 0 -- -- 71
2019-11-22 10:00:00 7.2 20 Sur 36 Sur 0 -- -- 69
2019-11-22 09:00:00 7 13 Sur 34 Sudeste 0 -- -- 70
2019-11-22 08:00:00 7 15 Sur 38 Sudeste 0 -- -- 69
2019-11-22 07:00:00 6.2 11 Sur 28 Sur 0 -- -- 72
2019-11-22 06:00:00 6.1 14 Sudoeste 31 Sur 0 -- -- 74
2019-11-22 05:00:00 5.7 10 Sudoeste 21 Sudoeste 0 -- -- 77
2019-11-22 04:00:00 5.5 10 Sudoeste 23 Sur 0 -- -- 80
2019-11-22 03:00:00 4.3 8 Sudoeste 14 Sudoeste 0 -- -- 88
2019-11-22 02:00:00 1.9 4 Sudoeste 9 Sudoeste 0 -- -- 96
2019-11-22 01:00:00 1.4 0 Calma 5 Nordeste 0 -- -- 96
2019-11-22 00:00:00 1.4 0 Calma 5 Noroeste 0 -- -- 95
2019-11-21 23:00:00 1.6 2 Sur 5 Nordeste 0 -- -- 94
2019-11-21 22:00:00 1.7 2 Oeste 5 Noroeste 0 -- -- 94
2019-11-21 21:00:00 2.1 2 Sudoeste 4 Sur 0 -- -- 92
2019-11-21 20:00:00 2.7 2 Norte 6 Nordeste 0 -- -- 90
2019-11-21 19:00:00 4.1 3 Noroeste 7 Oeste 0 -- -- 85
2019-11-21 18:00:00 5.1 3 Nordeste 9 Oeste 0 -- -- 82
2019-11-21 17:00:00 6.4 5 Sudoeste 13 Sudoeste 0 -- -- 76
2019-11-21 16:00:00 6.6 5 Sur 12 Sudoeste 0 -- -- 75
2019-11-21 15:00:00 6.4 5 Sudoeste 15 Sudoeste 0 -- -- 77
2019-11-21 14:00:00 6.2 7 Sudoeste 12 Sudoeste 0 -- -- 76
2019-11-21 13:00:00 5.4 0 Calma 5 Nordeste 0 -- -- 84
2019-11-21 12:00:00 4 2 Este 5 Este 0 -- -- 90
2019-11-21 11:00:00 3.4 0 Calma 4 Nordeste 0 -- -- 93
2019-11-21 10:00:00 2.5 0 Calma 8 Noroeste 0 -- -- 95
2019-11-21 09:00:00 2 3 Oeste 9 Noroeste 0 -- -- 94
2019-11-21 08:00:00 -- -- -- -- -- -- -- -- --
2019-11-21 07:00:00 -- -- -- -- -- -- -- -- --
2019-11-21 06:00:00 -- -- -- -- -- -- -- -- --
2019-11-21 05:00:00 -- -- -- -- -- -- -- -- --
2019-11-21 04:00:00 -- -- -- -- -- -- -- -- --
2019-11-21 03:00:00 -- -- -- -- -- -- -- -- --
2019-11-21 02:00:00 -- -- -- -- -- -- -- -- --
2019-11-21 01:00:00 -- -- -- -- -- -- -- -- --
2019-11-21 00:00:00 -- -- -- -- -- -- -- -- --
2019-11-20 23:00:00 -- -- -- -- -- -- -- -- --
2019-11-20 22:00:00 3.5 3 Nordeste 7 Nordeste 0 -- -- 77
2019-11-20 21:00:00 3.7 5 Nordeste 14 Sudoeste 0 -- -- 77
2019-11-20 20:00:00 3.5 5 Sudoeste 17 Sudoeste 0 -- -- 79
2019-11-20 19:00:00 3.2 0 Calma 8 Sudoeste 0 -- -- 82
2019-11-20 18:00:00 4.1 3 Nordeste 7 Nordeste 0 -- -- 74
2019-11-20 17:00:00 6.3 5 Sudoeste 19 Sur 0 -- -- 62
2019-11-20 16:00:00 7.7 11 Sudoeste 21 Sudoeste 0 -- -- 56
2019-11-20 15:00:00 8 6 Sur 20 Sudoeste 0 -- -- 54
2019-11-20 14:00:00 7.5 11 Sudoeste 26 Sudoeste 0 -- -- 55
2019-11-20 13:00:00 6.9 12 Sudoeste 22 Sudoeste 0 -- -- 56
2019-11-20 12:00:00 3.4 0 Calma 4 Este 0 -- -- 78
2019-11-20 11:00:00 -0.2 0 Calma 4 Este 0 -- -- 91
2019-11-20 10:00:00 -2.7 2 Nordeste 6 Este 0 -- -- 95
2019-11-20 09:00:00 -3.7 0 Calma 4 Noroeste 0 -- -- 95
2019-11-20 08:00:00 -4.1 0 Calma 6 Nordeste 0 -- -- 95
2019-11-20 07:00:00 -4 0 Calma 4 Noroeste 0 -- -- 94
2019-11-20 06:00:00 -3.6 2 Oeste 6 Noroeste 0 -- -- 96
2019-11-20 05:00:00 -3.9 2 Oeste 4 Sudoeste 0 -- -- 95
2019-11-20 04:00:00 -4 0 Calma 6 Oeste 0 -- -- 94
2019-11-20 03:00:00 -3.5 0 Calma 4 Este 0 -- -- 95
2019-11-20 02:00:00 -3.5 0 Calma 4 Sudoeste 0 -- -- 94
2019-11-20 01:00:00 -3.2 0 Calma 5 Noroeste 0 -- -- 94
2019-11-20 00:00:00 -2.8 0 Calma 4 Norte 0 -- -- 93
2019-11-19 23:00:00 -2.6 0 Calma 5 Sudoeste 0 -- -- 94
2019-11-19 22:00:00 -2 2 Nordeste 6 Oeste 0 -- -- 93
2019-11-19 21:00:00 -1.2 3 Oeste 5 Nordeste 0 -- -- 92
2019-11-19 20:00:00 -0.3 2 Sudoeste 5 Oeste 0 -- -- 89
2019-11-19 19:00:00 1 4 Sudoeste 10 Noroeste 0 -- -- 86
2019-11-19 18:00:00 3.5 5 Nordeste 15 Norte 0 -- -- 73
2019-11-19 17:00:00 6.4 2 Oeste 8 Oeste 0 -- -- 64
2019-11-19 16:00:00 8.7 4 Sur 15 Sudoeste 0 -- -- 56
2019-11-19 15:00:00 9.2 6 Sudoeste 11 Sudoeste 0 -- -- 48
2019-11-19 14:00:00 8.5 5 Sudeste 9 Sudeste 0 -- -- 46
2019-11-19 13:00:00 7.5 3 Sur 6 Sur 0 -- -- 48
2019-11-19 12:00:00 6.5 3 Sudeste 11 Sudoeste 0 -- -- 53
2019-11-19 11:00:00 4.2 2 Sur 9 Sur 0 -- -- 63
2019-11-19 10:00:00 0.2 4 Sur 17 Sudoeste 0 -- -- 75
2019-11-19 09:00:00 -3 6 Sudoeste 12 Sudoeste 0 -- -- 89
2019-11-19 08:00:00 -3.2 6 Sudoeste 22 Sudoeste 0 -- -- 86
2019-11-19 07:00:00 -2.9 10 Sur 19 Sur 0 -- -- 86
2019-11-19 06:00:00 -1.8 8 Sudoeste 31 Noroeste 0 -- -- 79
2019-11-19 05:00:00 3.1 14 Norte 31 Norte 0 -- -- 56
2019-11-19 04:00:00 -0.4 8 Sudoeste 31 Noroeste 0 -- -- 72
2019-11-19 03:00:00 3.6 15 Norte 39 Norte 0 -- -- 56
2019-11-19 02:00:00 -1.5 8 Sur 17 Sudoeste 0 -- -- 79
2019-11-19 01:00:00 3.5 9 Este 43 Nordeste 0 -- -- 51
2019-11-19 00:00:00 3.5 12 Nordeste 33 Nordeste 0 -- -- 46
2019-11-18 23:00:00 3.2 16 Norte 48 Nordeste 0 -- -- 50
2019-11-18 22:00:00 2.5 22 Norte 48 Nordeste 0.2 -- -- 59
2019-11-18 21:00:00 2.4 21 Norte 47 Norte 0 -- -- 62
2019-11-18 20:00:00 2.5 16 Norte 49 Nordeste 0 -- -- 59
2019-11-18 19:00:00 2.5 19 Norte 51 Norte 0 -- -- 61
2019-11-18 18:00:00 2.7 19 Noroeste 45 Norte 0 -- -- 60
2019-11-18 17:00:00 2.6 19 Norte 46 Nordeste 0 -- -- 65
2019-11-18 16:00:00 3.1 18 Norte 50 Nordeste 0 -- -- 66
2019-11-18 15:00:00 4.1 16 Norte 46 Nordeste 0 -- -- 60
2019-11-18 14:00:00 3.7 25 Nordeste 45 Norte 0 -- -- 61
2019-11-18 13:00:00 3.9 19 Norte 48 Nordeste 0 -- -- 58
2019-11-18 12:00:00 3.5 16 Norte 50 Nordeste 0 -- -- 60
2019-11-18 11:00:00 3 18 Norte 53 Nordeste 0 -- -- 62
2019-11-18 10:00:00 2.9 22 Norte 57 Nordeste 0 -- -- 64
2019-11-18 09:00:00 2.7 21 Norte 58 Norte 0 -- -- 68
2019-11-18 08:00:00 2.6 19 Noroeste 42 Norte 0 -- -- 72
2019-11-18 07:00:00 2.8 15 Noroeste 33 Noroeste 0 -- -- 77
2019-11-18 06:00:00 2 15 Noroeste 25 Noroeste 0 -- -- 92
2019-11-18 05:00:00 0.7 3 Norte 12 Nordeste 0 -- -- 98
2019-11-18 04:00:00 0.1 3 Nordeste 8 Este 0 -- -- 98
2019-11-18 03:00:00 0.6 3 Noroeste 5 Noroeste 0 -- -- 98
2019-11-18 02:00:00 0.7 2 Oeste 4 Oeste 0.4 -- -- 98
2019-11-18 01:00:00 0.7 2 Noroeste 5 Noroeste 0.8 -- -- 98
2019-11-18 00:00:00 0.6 3 Nordeste 6 Noroeste 0.4 -- -- 98
2019-11-17 23:00:00 0.5 3 Oeste 5 Oeste 0 -- -- 98
2019-11-17 22:00:00 0.6 2 Nordeste 5 Noroeste 0 -- -- 97
2019-11-17 21:00:00 0.9 4 Norte 10 Norte 0 -- -- 97
2019-11-17 20:00:00 0.9 2 Oeste 8 Sudoeste 0 -- -- 97
2019-11-17 19:00:00 1.3 0 Calma 6 Nordeste 0.2 -- -- 96
2019-11-17 18:00:00 1.5 3 Nordeste 6 Noroeste 0 -- -- 96
2019-11-17 17:00:00 2.2 0 Calma 5 Oeste 0 -- -- 94
2019-11-17 16:00:00 2.4 4 Norte 8 Nordeste 0 -- -- 94
2019-11-17 15:00:00 2.4 3 Nordeste 5 Nordeste 0.6 -- -- 94
2019-11-17 14:00:00 2.1 2 Este 7 Nordeste 0.8 -- -- 94
2019-11-17 13:00:00 2 0 Calma 7 Nordeste 0.2 -- -- 94
2019-11-17 12:00:00 2.4 2 Oeste 6 Nordeste 0 -- -- 90
2019-11-17 11:00:00 2.1 2 Sudoeste 6 Nordeste 0 -- -- 93
2019-11-17 10:00:00 1 2 Nordeste 9 Norte 0 -- -- 96
2019-11-17 09:00:00 0.1 4 Nordeste 11 Nordeste 0 -- -- 96
2019-11-17 08:00:00 0.1 4 Nordeste 17 Oeste 0 -- -- 95
2019-11-17 07:00:00 0.9 6 Oeste 26 Noroeste 0 -- -- 95
2019-11-17 06:00:00 -0.3 3 Norte 9 Noroeste 0 -- -- 96
2019-11-17 05:00:00 0.2 8 Norte 12 Nordeste 0 -- -- 97
2019-11-17 04:00:00 0.2 4 Norte 10 Oeste 0 -- -- 97
2019-11-17 03:00:00 0.2 3 Noroeste 10 Nordeste 0 -- -- 98
2019-11-17 02:00:00 0.3 4 Nordeste 10 Norte 0.2 -- -- 97
2019-11-17 01:00:00 0.2 0 Calma 6 Oeste 0 -- -- 98
2019-11-17 00:00:00 0.1 0 Calma 6 Oeste 0 -- -- 98
2019-11-16 23:00:00 0.1 2 Noroeste 5 Oeste 0.2 -- -- 98
2019-11-16 22:00:00 0.1 3 Oeste 5 Oeste 0.2 -- -- 97
2019-11-16 21:00:00 0 0 Calma 4 Oeste 0.2 -- -- 97
2019-11-16 20:00:00 0.1 4 Oeste 5 Oeste 1 -- -- 97
2019-11-16 19:00:00 0.1 0 Calma 4 Oeste 2 -- -- 97
2019-11-16 18:00:00 0.1 0 Calma 4 Nordeste 1.4 -- -- 96
2019-11-16 17:00:00 0.4 0 Calma 3 Nordeste 1.8 -- -- 96
2019-11-16 16:00:00 0.3 0 Calma 3 Nordeste 2.6 -- -- 96
2019-11-16 15:00:00 0.1 0 Calma 4 Este 1.6 -- -- 96
2019-11-16 14:00:00 0.1 0 Calma 2 Oeste 2 -- -- 95
2019-11-16 13:00:00 -0.6 0 Calma 4 Nordeste 1.8 -- -- 95
2019-11-16 12:00:00 -1.1 2 Nordeste 6 Nordeste 0.4 -- -- 95
2019-11-16 11:00:00 -1.5 4 Oeste 8 Noroeste 0 -- -- 94
2019-11-16 10:00:00 -2.8 2 Nordeste 7 Nordeste 0 -- -- 96
2019-11-16 09:00:00 -3.8 2 Noroeste 9 Oeste 0 -- -- 96
2019-11-16 08:00:00 -4.7 4 Oeste 10 Nordeste 0 -- -- 95
2019-11-16 07:00:00 -4.4 2 Sudoeste 12 Noroeste 0 -- -- 96
2019-11-16 06:00:00 -4.1 0 Calma 9 Nordeste 0 -- -- 95
2019-11-16 05:00:00 -3.8 5 Oeste 9 Sudoeste 0 -- -- 95
2019-11-16 04:00:00 -3.5 5 Noroeste 10 Noroeste 0 -- -- 95
2019-11-16 03:00:00 -2.9 4 Este 11 Sur 0 -- -- 94
2019-11-16 02:00:00 -2.1 4 Sudoeste 6 Oeste 0 -- -- 95
2019-11-16 01:00:00 -1.6 2 Sudoeste 9 Oeste 0 -- -- 94
2019-11-16 00:00:00 -1 3 Sudoeste 14 Sudoeste 0 -- -- 91